LEBB Airport Information

Runway Information
Runway 10 Length 6562 ft width 148 ft
Elevation 116 ft Threshold 0 ft Heading 97
Runway 28 Length 6562 ft Width 148 ft
Elevation 129 ft Threshold 0 ft Heading 277
Runway 12 Length 8530 ft width 148 ft
Elevation 119 ft Threshold 0 ft Heading 117
Runway 30 Length 8530 ft Width 148 ft
Elevation 128 ft Threshold 1509 ft Heading 297
Airport Frequencies
Type APP Name APP Frequency 120.7 MHZ
Type ATIS Name ATIS Frequency 118.825 MHZ
Type GND Name GND Frequency 121.7 MHZ
Type TWR Name TWR Frequency 118.5 MHZ
Airport Navaids
Type VOR-DME Name Bilbao Frequency 115900 KHZ
Airport Weather Information & NOTAM
ADDS - METARS form results

(0148 UTC 19 January 2018)
 
METAR text: LEBB 190130Z AUTO 08003KT 7000 BKN024/// 10/09 Q1022
Conditions at: LEBB (BILBAO/SONDICA , ES) observed 0130 UTC 19 January 2018
Temperature: 10.0°C (50°F)
Dewpoint: 9.0°C (48°F) [RH = 93%]
Pressure (altimeter): 30.18 inches Hg (1022.0 mb)
Winds: from the E (80 degrees) at 3 MPH (3 knots; 1.6 m/s)
Visibility: 4 miles (7 km)
Ceiling: 2400 feet AGL
Clouds: broken clouds at 2400 feet AGL
Weather: no significant weather observed at this time

METAR text: LEBB 190100Z AUTO 12005KT 6000 BKN023/// 10/09 Q1022
Conditions at: LEBB (BILBAO/SONDICA , ES) observed 0100 UTC 19 January 2018
Temperature: 10.0°C (50°F)
Dewpoint: 9.0°C (48°F) [RH = 93%]
Pressure (altimeter): 30.18 inches Hg (1022.0 mb)
Winds: from the ESE (120 degrees) at 6 MPH (5 knots; 2.6 m/s)
Visibility: 4 miles (6 km)
Ceiling: 2300 feet AGL
Clouds: broken clouds at 2300 feet AGL
Weather: no significant weather observed at this time